Weather at Bill & Hillary Clinton National Airport/Adams Field

Public forecast

Using degrees Fahrenheit for public forecast. Weather courtesy of forecast.io.

Current aviation weather report (METAR) for Bill & Hillary Clinton National Airport/Adams Field

Retrieved 2020/09/24 08:35 UTC (0 seconds ago):

KLIT 240835Z 02005KT 2 1/2SM -DZ BR OVC005 16/14 A2991

Aviation forecast (TAF) for Bill & Hillary Clinton National Airport/Adams Field

Retrieved 2020/09/24 06:22 UTC (2 hours ago):

TAF KLIT 240520Z 2406/2506 04010KT 2SM -DZ BR OVC005 FM241500 01009KT 6SM BR OVC007 FM241800 01008KT P6SM OVC015